sensor_id;sensor_type;location;lat;lon;timestamp;temperature;humidity
11474;DHT22;5793;52.238;13.438;2023-01-05T00:01:01;9.20;99.90
11474;DHT22;5793;52.238;13.438;2023-01-05T00:03:29;9.20;99.90
11474;DHT22;5793;52.238;13.438;2023-01-05T00:05:58;9.20;99.90
11474;DHT22;5793;52.238;13.438;2023-01-05T00:08:27;9.10;99.90
11474;DHT22;5793;52.238;13.438;2023-01-05T00:11:05;9.10;99.90
11474;DHT22;5793;52.238;13.438;2023-01-05T00:13:51;9.10;99.90
11474;DHT22;5793;52.238;13.438;2023-01-05T00:16:36;9.10;99.90
11474;DHT22;5793;52.238;13.438;2023-01-05T00:19:21;9.10;99.90
11474;DHT22;5793;52.238;13.438;2023-01-05T00:22:13;9.10;99.90
11474;DHT22;5793;52.238;13.438;2023-01-05T00:25:03;9.20;99.90
11474;DHT22;5793;52.238;13.438;2023-01-05T00:27:40;9.20;99.90
11474;DHT22;5793;52.238;13.438;2023-01-05T00:30:09;9.10;99.90
11474;DHT22;5793;52.238;13.438;2023-01-05T00:32:39;9.10;99.90
11474;DHT22;5793;52.238;13.438;2023-01-05T00:35:07;9.20;99.90
11474;DHT22;5793;52.238;13.438;2023-01-05T00:37:36;9.30;99.90
11474;DHT22;5793;52.238;13.438;2023-01-05T00:40:05;9.30;99.90
11474;DHT22;5793;52.238;13.438;2023-01-05T00:42:33;9.40;99.90
11474;DHT22;5793;52.238;13.438;2023-01-05T00:45:03;9.40;99.90
11474;DHT22;5793;52.238;13.438;2023-01-05T00:47:31;9.40;99.90
11474;DHT22;5793;52.238;13.438;2023-01-05T00:49:59;9.40;99.90
11474;DHT22;5793;52.238;13.438;2023-01-05T00:52:28;9.50;99.90
11474;DHT22;5793;52.238;13.438;2023-01-05T00:54:56;9.50;99.90
11474;DHT22;5793;52.238;13.438;2023-01-05T00:57:24;9.50;99.90
11474;DHT22;5793;52.238;13.438;2023-01-05T00:59:52;9.50;99.90
11474;DHT22;5793;52.238;13.438;2023-01-05T01:02:22;9.50;99.90
11474;DHT22;5793;52.238;13.438;2023-01-05T01:04:50;9.50;99.90
11474;DHT22;5793;52.238;13.438;2023-01-05T01:07:18;9.40;99.90
11474;DHT22;5793;52.238;13.438;2023-01-05T01:09:46;9.50;99.90
11474;DHT22;5793;52.238;13.438;2023-01-05T01:12:14;9.50;99.90
11474;DHT22;5793;52.238;13.438;2023-01-05T01:14:45;9.50;99.90
11474;DHT22;5793;52.238;13.438;2023-01-05T01:17:13;9.50;99.90
11474;DHT22;5793;52.238;13.438;2023-01-05T01:19:42;9.40;99.90
11474;DHT22;5793;52.238;13.438;2023-01-05T01:22:12;9.20;99.90
11474;DHT22;5793;52.238;13.438;2023-01-05T01:24:41;9.20;99.90
11474;DHT22;5793;52.238;13.438;2023-01-05T01:27:09;9.10;99.90
11474;DHT22;5793;52.238;13.438;2023-01-05T01:29:37;9.10;99.90
11474;DHT22;5793;52.238;13.438;2023-01-05T01:32:04;9.10;99.90
11474;DHT22;5793;52.238;13.438;2023-01-05T01:34:32;9.10;99.90
11474;DHT22;5793;52.238;13.438;2023-01-05T01:37:02;9.10;99.90
11474;DHT22;5793;52.238;13.438;2023-01-05T01:39:30;9.20;99.90
11474;DHT22;5793;52.238;13.438;2023-01-05T01:41:58;9.20;99.90
11474;DHT22;5793;52.238;13.438;2023-01-05T01:44:48;9.30;99.90
11474;DHT22;5793;52.238;13.438;2023-01-05T01:47:21;9.40;99.90
11474;DHT22;5793;52.238;13.438;2023-01-05T01:49:52;9.40;99.90
11474;DHT22;5793;52.238;13.438;2023-01-05T01:52:22;9.40;99.90
11474;DHT22;5793;52.238;13.438;2023-01-05T01:54:51;9.40;99.90
11474;DHT22;5793;52.238;13.438;2023-01-05T01:57:20;9.50;99.90
11474;DHT22;5793;52.238;13.438;2023-01-05T01:59:49;9.50;99.90
11474;DHT22;5793;52.238;13.438;2023-01-05T02:02:17;9.50;99.90
11474;DHT22;5793;52.238;13.438;2023-01-05T02:04:48;9.60;99.90
11474;DHT22;5793;52.238;13.438;2023-01-05T02:07:16;9.60;99.90
11474;DHT22;5793;52.238;13.438;2023-01-05T02:09:45;9.60;99.90
11474;DHT22;5793;52.238;13.438;2023-01-05T02:12:26;9.50;99.90
11474;DHT22;5793;52.238;13.438;2023-01-05T02:15:10;9.40;99.90
11474;DHT22;5793;52.238;13.438;2023-01-05T02:17:51;9.40;99.90
11474;DHT22;5793;52.238;13.438;2023-01-05T02:23:38;9.30;99.90
11474;DHT22;5793;52.238;13.438;2023-01-05T02:26:29;9.40;99.90
11474;DHT22;5793;52.238;13.438;2023-01-05T02:29:26;9.30;99.90
11474;DHT22;5793;52.238;13.438;2023-01-05T02:31:59;9.20;99.90
11474;DHT22;5793;52.238;13.438;2023-01-05T02:34:36;9.30;99.90
11474;DHT22;5793;52.238;13.438;2023-01-05T02:37:09;9.20;99.90
11474;DHT22;5793;52.238;13.438;2023-01-05T02:39:44;9.20;99.90
11474;DHT22;5793;52.238;13.438;2023-01-05T02:42:19;9.10;99.90
11474;DHT22;5793;52.238;13.438;2023-01-05T02:44:49;9.10;99.90
11474;DHT22;5793;52.238;13.438;2023-01-05T02:47:39;9.20;99.90
11474;DHT22;5793;52.238;13.438;2023-01-05T02:50:11;9.10;99.90
11474;DHT22;5793;52.238;13.438;2023-01-05T02:52:47;9.10;99.90
11474;DHT22;5793;52.238;13.438;2023-01-05T02:55:20;9.10;99.90
11474;DHT22;5793;52.238;13.438;2023-01-05T02:57:52;9.10;99.90
11474;DHT22;5793;52.238;13.438;2023-01-05T03:00:25;9.10;99.90
11474;DHT22;5793;52.238;13.438;2023-01-05T03:02:59;9.10;99.90
11474;DHT22;5793;52.238;13.438;2023-01-05T03:05:32;9.10;99.90
11474;DHT22;5793;52.238;13.438;2023-01-05T03:08:01;9.00;99.90
11474;DHT22;5793;52.238;13.438;2023-01-05T03:10:37;9.00;99.90
11474;DHT22;5793;52.238;13.438;2023-01-05T03:13:28;9.00;99.90
11474;DHT22;5793;52.238;13.438;2023-01-05T03:16:10;9.00;99.90
11474;DHT22;5793;52.238;13.438;2023-01-05T03:18:40;9.00;99.90
11474;DHT22;5793;52.238;13.438;2023-01-05T03:21:22;9.00;99.90
11474;DHT22;5793;52.238;13.438;2023-01-05T03:23:53;9.10;99.90
11474;DHT22;5793;52.238;13.438;2023-01-05T03:26:41;9.30;99.90
11474;DHT22;5793;52.238;13.438;2023-01-05T03:29:26;9.40;99.90
11474;DHT22;5793;52.238;13.438;2023-01-05T03:32:17;9.50;99.90
11474;DHT22;5793;52.238;13.438;2023-01-05T03:35:10;9.60;99.90
11474;DHT22;5793;52.238;13.438;2023-01-05T03:38:01;9.60;99.90
11474;DHT22;5793;52.238;13.438;2023-01-05T03:40:33;9.70;99.90
11474;DHT22;5793;52.238;13.438;2023-01-05T03:43:02;9.70;99.90
11474;DHT22;5793;52.238;13.438;2023-01-05T03:45:36;9.70;99.90
11474;DHT22;5793;52.238;13.438;2023-01-05T03:48:05;9.70;99.90
11474;DHT22;5793;52.238;13.438;2023-01-05T03:50:35;9.70;99.90
11474;DHT22;5793;52.238;13.438;2023-01-05T03:53:03;9.50;99.90
11474;DHT22;5793;52.238;13.438;2023-01-05T03:55:31;9.50;99.90
11474;DHT22;5793;52.238;13.438;2023-01-05T03:57:59;9.40;99.90
11474;DHT22;5793;52.238;13.438;2023-01-05T04:00:27;9.40;99.90
11474;DHT22;5793;52.238;13.438;2023-01-05T04:02:55;9.40;99.90
11474;DHT22;5793;52.238;13.438;2023-01-05T04:05:22;9.40;99.90
11474;DHT22;5793;52.238;13.438;2023-01-05T04:07:52;9.40;99.90
11474;DHT22;5793;52.238;13.438;2023-01-05T04:10:19;9.40;99.90
11474;DHT22;5793;52.238;13.438;2023-01-05T04:12:47;9.40;99.90
11474;DHT22;5793;52.238;13.438;2023-01-05T04:15:15;9.40;99.90
11474;DHT22;5793;52.238;13.438;2023-01-05T04:17:43;9.30;99.90
11474;DHT22;5793;52.238;13.438;2023-01-05T04:20:11;9.40;99.90
11474;DHT22;5793;52.238;13.438;2023-01-05T04:22:39;9.50;99.90
11474;DHT22;5793;52.238;13.438;2023-01-05T04:25:08;9.50;99.90
11474;DHT22;5793;52.238;13.438;2023-01-05T04:27:36;9.50;99.90
11474;DHT22;5793;52.238;13.438;2023-01-05T04:30:05;9.50;99.90
11474;DHT22;5793;52.238;13.438;2023-01-05T04:32:33;9.50;99.90
11474;DHT22;5793;52.238;13.438;2023-01-05T04:35:00;9.50;99.90
11474;DHT22;5793;52.238;13.438;2023-01-05T04:37:37;9.50;99.90
11474;DHT22;5793;52.238;13.438;2023-01-05T04:40:05;9.50;99.90
11474;DHT22;5793;52.238;13.438;2023-01-05T04:42:35;9.40;99.90
11474;DHT22;5793;52.238;13.438;2023-01-05T04:45:03;9.30;99.90
11474;DHT22;5793;52.238;13.438;2023-01-05T04:47:31;9.30;99.90
11474;DHT22;5793;52.238;13.438;2023-01-05T04:49:59;9.20;99.90
11474;DHT22;5793;52.238;13.438;2023-01-05T04:52:26;9.20;99.90
11474;DHT22;5793;52.238;13.438;2023-01-05T04:54:54;9.20;99.90
11474;DHT22;5793;52.238;13.438;2023-01-05T04:57:22;9.20;99.90
11474;DHT22;5793;52.238;13.438;2023-01-05T04:59:51;9.30;99.90
11474;DHT22;5793;52.238;13.438;2023-01-05T05:02:19;9.30;99.90
11474;DHT22;5793;52.238;13.438;2023-01-05T05:04:47;9.40;99.90
11474;DHT22;5793;52.238;13.438;2023-01-05T05:07:14;9.40;99.90
11474;DHT22;5793;52.238;13.438;2023-01-05T05:09:42;9.50;99.90
11474;DHT22;5793;52.238;13.438;2023-01-05T05:12:10;9.50;99.90
11474;DHT22;5793;52.238;13.438;2023-01-05T05:14:38;9.40;99.90
11474;DHT22;5793;52.238;13.438;2023-01-05T05:17:07;9.40;99.90
11474;DHT22;5793;52.238;13.438;2023-01-05T05:19:35;9.50;99.90
11474;DHT22;5793;52.238;13.438;2023-01-05T05:22:03;9.50;99.90
11474;DHT22;5793;52.238;13.438;2023-01-05T05:24:31;9.50;99.90
11474;DHT22;5793;52.238;13.438;2023-01-05T05:26:59;9.50;99.90
11474;DHT22;5793;52.238;13.438;2023-01-05T05:29:27;9.50;99.90
11474;DHT22;5793;52.238;13.438;2023-01-05T05:31:54;9.60;99.90
11474;DHT22;5793;52.238;13.438;2023-01-05T05:34:23;9.60;99.90
11474;DHT22;5793;52.238;13.438;2023-01-05T05:36:51;9.60;99.90
11474;DHT22;5793;52.238;13.438;2023-01-05T05:39:19;9.60;99.90
11474;DHT22;5793;52.238;13.438;2023-01-05T05:41:47;9.60;99.90
11474;DHT22;5793;52.238;13.438;2023-01-05T05:44:15;9.60;99.90
11474;DHT22;5793;52.238;13.438;2023-01-05T05:46:42;9.70;99.90
11474;DHT22;5793;52.238;13.438;2023-01-05T05:49:10;9.70;99.90
11474;DHT22;5793;52.238;13.438;2023-01-05T05:51:39;9.70;99.90
11474;DHT22;5793;52.238;13.438;2023-01-05T05:54:07;9.60;99.90
11474;DHT22;5793;52.238;13.438;2023-01-05T05:56:35;9.60;99.90
11474;DHT22;5793;52.238;13.438;2023-01-05T05:59:02;9.50;99.90
11474;DHT22;5793;52.238;13.438;2023-01-05T06:01:30;9.40;99.90
11474;DHT22;5793;52.238;13.438;2023-01-05T06:03:58;9.50;99.90
11474;DHT22;5793;52.238;13.438;2023-01-05T06:06:26;9.50;99.90
11474;DHT22;5793;52.238;13.438;2023-01-05T06:08:55;9.50;99.90
11474;DHT22;5793;52.238;13.438;2023-01-05T06:11:23;9.60;99.90
11474;DHT22;5793;52.238;13.438;2023-01-05T06:13:51;9.60;99.90
11474;DHT22;5793;52.238;13.438;2023-01-05T06:16:18;9.50;99.90
11474;DHT22;5793;52.238;13.438;2023-01-05T06:18:46;9.40;99.90
11474;DHT22;5793;52.238;13.438;2023-01-05T06:21:14;9.40;99.90
11474;DHT22;5793;52.238;13.438;2023-01-05T06:23:42;9.30;99.90
11474;DHT22;5793;52.238;13.438;2023-01-05T06:26:11;9.20;99.90
11474;DHT22;5793;52.238;13.438;2023-01-05T06:28:39;9.20;99.90
11474;DHT22;5793;52.238;13.438;2023-01-05T06:31:06;9.10;99.90
11474;DHT22;5793;52.238;13.438;2023-01-05T06:33:34;9.10;99.90
11474;DHT22;5793;52.238;13.438;2023-01-05T06:36:02;9.10;99.90
11474;DHT22;5793;52.238;13.438;2023-01-05T06:38:30;9.10;99.90
11474;DHT22;5793;52.238;13.438;2023-01-05T06:40:58;9.10;99.90
11474;DHT22;5793;52.238;13.438;2023-01-05T06:43:27;9.00;99.90
11474;DHT22;5793;52.238;13.438;2023-01-05T06:45:55;9.00;99.90
11474;DHT22;5793;52.238;13.438;2023-01-05T06:48:23;9.00;99.90
11474;DHT22;5793;52.238;13.438;2023-01-05T06:50:50;9.00;99.90
11474;DHT22;5793;52.238;13.438;2023-01-05T06:53:18;9.00;99.90
11474;DHT22;5793;52.238;13.438;2023-01-05T06:55:46;9.00;99.90
11474;DHT22;5793;52.238;13.438;2023-01-05T06:58:14;9.00;99.90
11474;DHT22;5793;52.238;13.438;2023-01-05T07:00:43;9.00;99.90
11474;DHT22;5793;52.238;13.438;2023-01-05T07:03:12;9.00;99.90
11474;DHT22;5793;52.238;13.438;2023-01-05T07:05:39;8.90;99.90
11474;DHT22;5793;52.238;13.438;2023-01-05T07:08:07;8.90;99.90
11474;DHT22;5793;52.238;13.438;2023-01-05T07:10:35;8.90;99.90
11474;DHT22;5793;52.238;13.438;2023-01-05T07:13:03;8.90;99.90
11474;DHT22;5793;52.238;13.438;2023-01-05T07:15:31;8.90;99.90
11474;DHT22;5793;52.238;13.438;2023-01-05T07:18:00;8.90;99.90
11474;DHT22;5793;52.238;13.438;2023-01-05T07:20:27;8.90;99.90
11474;DHT22;5793;52.238;13.438;2023-01-05T07:22:55;8.90;99.90
11474;DHT22;5793;52.238;13.438;2023-01-05T07:25:23;8.90;99.90
11474;DHT22;5793;52.238;13.438;2023-01-05T07:27:56;8.80;99.90
11474;DHT22;5793;52.238;13.438;2023-01-05T07:30:24;8.80;99.90
11474;DHT22;5793;52.238;13.438;2023-01-05T07:32:53;8.80;99.90
11474;DHT22;5793;52.238;13.438;2023-01-05T07:35:25;8.90;99.90
11474;DHT22;5793;52.238;13.438;2023-01-05T07:37:54;8.90;99.90
11474;DHT22;5793;52.238;13.438;2023-01-05T07:40:22;9.00;99.90
11474;DHT22;5793;52.238;13.438;2023-01-05T07:42:51;9.00;99.90
11474;DHT22;5793;52.238;13.438;2023-01-05T07:45:19;9.00;99.90
11474;DHT22;5793;52.238;13.438;2023-01-05T07:47:47;8.80;99.90
11474;DHT22;5793;52.238;13.438;2023-01-05T07:50:14;8.60;99.90
11474;DHT22;5793;52.238;13.438;2023-01-05T07:52:44;8.30;99.90
11474;DHT22;5793;52.238;13.438;2023-01-05T07:55:11;8.20;99.90
11474;DHT22;5793;52.238;13.438;2023-01-05T07:57:39;8.20;99.90
11474;DHT22;5793;52.238;13.438;2023-01-05T08:00:09;8.20;99.90
11474;DHT22;5793;52.238;13.438;2023-01-05T08:02:39;8.20;99.90
11474;DHT22;5793;52.238;13.438;2023-01-05T08:05:08;8.30;99.90
11474;DHT22;5793;52.238;13.438;2023-01-05T08:07:35;8.30;99.90
11474;DHT22;5793;52.238;13.438;2023-01-05T08:10:06;8.30;99.90
11474;DHT22;5793;52.238;13.438;2023-01-05T08:12:51;8.30;99.90
11474;DHT22;5793;52.238;13.438;2023-01-05T08:15:36;8.30;99.90
11474;DHT22;5793;52.238;13.438;2023-01-05T08:18:04;8.20;99.90
11474;DHT22;5793;52.238;13.438;2023-01-05T08:20:32;8.30;99.90
11474;DHT22;5793;52.238;13.438;2023-01-05T08:23:00;8.20;99.90
11474;DHT22;5793;52.238;13.438;2023-01-05T08:25:29;8.20;99.90
11474;DHT22;5793;52.238;13.438;2023-01-05T08:27:58;8.10;99.90
11474;DHT22;5793;52.238;13.438;2023-01-05T08:30:25;8.10;99.90
11474;DHT22;5793;52.238;13.438;2023-01-05T08:32:53;8.10;99.90
11474;DHT22;5793;52.238;13.438;2023-01-05T08:35:21;8.10;99.90
11474;DHT22;5793;52.238;13.438;2023-01-05T08:37:49;8.20;99.90
11474;DHT22;5793;52.238;13.438;2023-01-05T08:40:16;8.30;99.90
11474;DHT22;5793;52.238;13.438;2023-01-05T08:42:45;8.40;99.90
11474;DHT22;5793;52.238;13.438;2023-01-05T08:45:14;8.40;99.90
11474;DHT22;5793;52.238;13.438;2023-01-05T08:47:42;8.40;99.90
11474;DHT22;5793;52.238;13.438;2023-01-05T08:50:10;8.40;99.90
11474;DHT22;5793;52.238;13.438;2023-01-05T08:52:38;8.40;99.90
11474;DHT22;5793;52.238;13.438;2023-01-05T08:55:07;8.40;99.90
11474;DHT22;5793;52.238;13.438;2023-01-05T08:57:35;8.50;99.90
11474;DHT22;5793;52.238;13.438;2023-01-05T09:00:05;8.50;99.90
11474;DHT22;5793;52.238;13.438;2023-01-05T09:02:34;8.60;99.90
11474;DHT22;5793;52.238;13.438;2023-01-05T09:05:02;8.90;99.90
11474;DHT22;5793;52.238;13.438;2023-01-05T09:07:30;9.10;99.90
11474;DHT22;5793;52.238;13.438;2023-01-05T09:09:58;9.40;99.90
11474;DHT22;5793;52.238;13.438;2023-01-05T09:12:26;9.50;99.90
11474;DHT22;5793;52.238;13.438;2023-01-05T09:14:58;9.40;99.90
11474;DHT22;5793;52.238;13.438;2023-01-05T09:17:28;9.30;99.90
11474;DHT22;5793;52.238;13.438;2023-01-05T09:19:56;9.10;99.90
11474;DHT22;5793;52.238;13.438;2023-01-05T09:22:24;9.00;99.90
11474;DHT22;5793;52.238;13.438;2023-01-05T09:24:52;8.90;99.90
11474;DHT22;5793;52.238;13.438;2023-01-05T09:27:20;8.90;99.90
11474;DHT22;5793;52.238;13.438;2023-01-05T09:29:48;8.90;99.90
11474;DHT22;5793;52.238;13.438;2023-01-05T09:32:16;8.80;99.90
11474;DHT22;5793;52.238;13.438;2023-01-05T09:34:45;8.80;99.90
11474;DHT22;5793;52.238;13.438;2023-01-05T09:37:13;8.80;99.90
11474;DHT22;5793;52.238;13.438;2023-01-05T09:39:40;9.00;99.90
11474;DHT22;5793;52.238;13.438;2023-01-05T09:42:14;9.10;99.90
11474;DHT22;5793;52.238;13.438;2023-01-05T09:44:45;9.10;99.90
11474;DHT22;5793;52.238;13.438;2023-01-05T09:47:26;9.30;99.90
11474;DHT22;5793;52.238;13.438;2023-01-05T09:49:58;9.40;99.90
11474;DHT22;5793;52.238;13.438;2023-01-05T09:52:26;9.60;99.90
11474;DHT22;5793;52.238;13.438;2023-01-05T09:55:03;9.80;99.90
11474;DHT22;5793;52.238;13.438;2023-01-05T09:57:31;10.00;99.90
11474;DHT22;5793;52.238;13.438;2023-01-05T10:00:02;10.20;99.90
11474;DHT22;5793;52.238;13.438;2023-01-05T10:02:39;10.40;99.90
11474;DHT22;5793;52.238;13.438;2023-01-05T10:05:13;10.40;99.90
11474;DHT22;5793;52.238;13.438;2023-01-05T10:07:44;10.20;99.90
11474;DHT22;5793;52.238;13.438;2023-01-05T10:10:25;10.20;99.90
11474;DHT22;5793;52.238;13.438;2023-01-05T10:12:58;10.10;99.90
11474;DHT22;5793;52.238;13.438;2023-01-05T10:15:33;10.10;99.90
11474;DHT22;5793;52.238;13.438;2023-01-05T10:18:10;10.10;99.90
11474;DHT22;5793;52.238;13.438;2023-01-05T10:20:50;10.10;99.90
11474;DHT22;5793;52.238;13.438;2023-01-05T10:23:38;10.10;99.90
11474;DHT22;5793;52.238;13.438;2023-01-05T10:26:15;10.00;99.90
11474;DHT22;5793;52.238;13.438;2023-01-05T10:28:48;10.00;99.90
11474;DHT22;5793;52.238;13.438;2023-01-05T10:31:21;10.00;99.90
11474;DHT22;5793;52.238;13.438;2023-01-05T10:33:51;9.90;99.90
11474;DHT22;5793;52.238;13.438;2023-01-05T10:36:39;9.90;99.90
11474;DHT22;5793;52.238;13.438;2023-01-05T10:39:59;9.90;99.90
11474;DHT22;5793;52.238;13.438;2023-01-05T10:42:43;10.00;99.90
11474;DHT22;5793;52.238;13.438;2023-01-05T10:45:13;9.90;99.90
11474;DHT22;5793;52.238;13.438;2023-01-05T10:47:42;10.00;99.90
11474;DHT22;5793;52.238;13.438;2023-01-05T10:50:34;10.10;99.90
11474;DHT22;5793;52.238;13.438;2023-01-05T10:53:08;10.90;99.90
11474;DHT22;5793;52.238;13.438;2023-01-05T10:55:49;12.20;99.90
11474;DHT22;5793;52.238;13.438;2023-01-05T10:58:22;13.60;99.90
11474;DHT22;5793;52.238;13.438;2023-01-05T11:00:52;14.30;99.90
11474;DHT22;5793;52.238;13.438;2023-01-05T11:03:27;13.50;99.90
11474;DHT22;5793;52.238;13.438;2023-01-05T11:06:19;12.20;99.90
11474;DHT22;5793;52.238;13.438;2023-01-05T11:08:49;11.30;99.90
11474;DHT22;5793;52.238;13.438;2023-01-05T11:11:23;10.70;99.90
11474;DHT22;5793;52.238;13.438;2023-01-05T11:13:54;10.30;99.90
11474;DHT22;5793;52.238;13.438;2023-01-05T11:16:24;10.20;99.90
11474;DHT22;5793;52.238;13.438;2023-01-05T11:18:55;10.10;99.90
11474;DHT22;5793;52.238;13.438;2023-01-05T11:21:26;10.00;99.90
11474;DHT22;5793;52.238;13.438;2023-01-05T11:23:57;9.90;99.90
11474;DHT22;5793;52.238;13.438;2023-01-05T11:26:31;9.90;99.90
11474;DHT22;5793;52.238;13.438;2023-01-05T11:29:02;9.90;99.90
11474;DHT22;5793;52.238;13.438;2023-01-05T11:31:35;9.90;99.90
11474;DHT22;5793;52.238;13.438;2023-01-05T11:34:08;9.90;99.90
11474;DHT22;5793;52.238;13.438;2023-01-05T11:36:39;9.90;99.90
11474;DHT22;5793;52.238;13.438;2023-01-05T11:39:18;9.80;99.90
11474;DHT22;5793;52.238;13.438;2023-01-05T11:41:48;9.70;99.90
11474;DHT22;5793;52.238;13.438;2023-01-05T11:44:19;9.70;99.90
11474;DHT22;5793;52.238;13.438;2023-01-05T11:46:48;9.60;99.90
11474;DHT22;5793;52.238;13.438;2023-01-05T11:49:17;9.50;99.90
11474;DHT22;5793;52.238;13.438;2023-01-05T11:51:45;9.50;99.90
11474;DHT22;5793;52.238;13.438;2023-01-05T11:54:31;9.50;99.90
11474;DHT22;5793;52.238;13.438;2023-01-05T11:57:12;9.40;99.90
11474;DHT22;5793;52.238;13.438;2023-01-05T11:59:41;9.40;99.90
11474;DHT22;5793;52.238;13.438;2023-01-05T12:02:44;9.40;99.90
11474;DHT22;5793;52.238;13.438;2023-01-05T12:05:23;9.40;99.90
11474;DHT22;5793;52.238;13.438;2023-01-05T12:07:56;9.50;99.90
11474;DHT22;5793;52.238;13.438;2023-01-05T12:10:51;9.50;99.90
11474;DHT22;5793;52.238;13.438;2023-01-05T12:16:28;9.50;99.90
11474;DHT22;5793;52.238;13.438;2023-01-05T12:19:25;9.60;99.90
11474;DHT22;5793;52.238;13.438;2023-01-05T12:22:12;9.70;99.90
11474;DHT22;5793;52.238;13.438;2023-01-05T12:24:56;9.60;99.90
11474;DHT22;5793;52.238;13.438;2023-01-05T12:27:42;9.50;99.90
11474;DHT22;5793;52.238;13.438;2023-01-05T12:30:24;9.40;99.90
11474;DHT22;5793;52.238;13.438;2023-01-05T12:36:31;9.50;99.90
11474;DHT22;5793;52.238;13.438;2023-01-05T12:39:12;9.70;99.90
11474;DHT22;5793;52.238;13.438;2023-01-05T12:41:54;9.70;99.90
11474;DHT22;5793;52.238;13.438;2023-01-05T12:44:41;9.70;99.90
11474;DHT22;5793;52.238;13.438;2023-01-05T12:47:25;9.70;99.90
11474;DHT22;5793;52.238;13.438;2023-01-05T12:49:57;9.70;99.90
11474;DHT22;5793;52.238;13.438;2023-01-05T12:52:29;9.70;99.90
11474;DHT22;5793;52.238;13.438;2023-01-05T12:55:03;9.60;99.90
11474;DHT22;5793;52.238;13.438;2023-01-05T12:57:36;9.60;99.90
11474;DHT22;5793;52.238;13.438;2023-01-05T13:00:09;9.50;99.90
11474;DHT22;5793;52.238;13.438;2023-01-05T13:02:40;9.50;99.90
11474;DHT22;5793;52.238;13.438;2023-01-05T13:05:16;9.50;99.90
11474;DHT22;5793;52.238;13.438;2023-01-05T13:07:48;9.50;99.90
11474;DHT22;5793;52.238;13.438;2023-01-05T13:10:19;9.40;99.90
11474;DHT22;5793;52.238;13.438;2023-01-05T13:12:54;9.40;99.90
11474;DHT22;5793;52.238;13.438;2023-01-05T13:15:28;9.40;99.90
11474;DHT22;5793;52.238;13.438;2023-01-05T13:18:06;9.50;99.90
11474;DHT22;5793;52.238;13.438;2023-01-05T13:20:38;9.40;99.90
11474;DHT22;5793;52.238;13.438;2023-01-05T13:23:11;9.40;99.90
11474;DHT22;5793;52.238;13.438;2023-01-05T13:25:49;9.40;99.90
11474;DHT22;5793;52.238;13.438;2023-01-05T13:28:19;9.40;99.90
11474;DHT22;5793;52.238;13.438;2023-01-05T13:33:59;9.40;99.90
11474;DHT22;5793;52.238;13.438;2023-01-05T13:36:43;9.50;99.90
11474;DHT22;5793;52.238;13.438;2023-01-05T13:39:33;9.50;99.90
11474;DHT22;5793;52.238;13.438;2023-01-05T13:42:23;9.50;99.90
11474;DHT22;5793;52.238;13.438;2023-01-05T13:45:05;9.50;99.90
11474;DHT22;5793;52.238;13.438;2023-01-05T13:47:50;9.40;99.90
11474;DHT22;5793;52.238;13.438;2023-01-05T13:50:46;9.40;99.90
11474;DHT22;5793;52.238;13.438;2023-01-05T13:53:17;9.40;99.90
11474;DHT22;5793;52.238;13.438;2023-01-05T13:55:55;9.30;99.90
11474;DHT22;5793;52.238;13.438;2023-01-05T13:58:35;9.40;99.90
11474;DHT22;5793;52.238;13.438;2023-01-05T14:01:07;9.30;99.90
11474;DHT22;5793;52.238;13.438;2023-01-05T14:03:39;9.30;99.90
11474;DHT22;5793;52.238;13.438;2023-01-05T14:06:16;9.30;99.90
11474;DHT22;5793;52.238;13.438;2023-01-05T14:08:50;9.20;99.90
11474;DHT22;5793;52.238;13.438;2023-01-05T14:11:21;9.20;99.90
11474;DHT22;5793;52.238;13.438;2023-01-05T14:13:52;9.20;99.90
11474;DHT22;5793;52.238;13.438;2023-01-05T14:16:52;9.10;99.90
11474;DHT22;5793;52.238;13.438;2023-01-05T14:19:24;9.10;99.90
11474;DHT22;5793;52.238;13.438;2023-01-05T14:22:33;9.20;99.90
11474;DHT22;5793;52.238;13.438;2023-01-05T14:34:05;9.00;99.90
11474;DHT22;5793;52.238;13.438;2023-01-05T14:36:38;9.00;99.90
11474;DHT22;5793;52.238;13.438;2023-01-05T14:39:20;9.00;99.90
11474;DHT22;5793;52.238;13.438;2023-01-05T14:41:58;8.90;99.90
11474;DHT22;5793;52.238;13.438;2023-01-05T14:44:29;8.90;99.90
11474;DHT22;5793;52.238;13.438;2023-01-05T14:46:58;8.80;99.90
11474;DHT22;5793;52.238;13.438;2023-01-05T14:49:31;8.80;99.90
11474;DHT22;5793;52.238;13.438;2023-01-05T14:52:04;8.80;99.90
11474;DHT22;5793;52.238;13.438;2023-01-05T14:54:36;8.90;99.90
11474;DHT22;5793;52.238;13.438;2023-01-05T14:57:26;8.80;99.90
11474;DHT22;5793;52.238;13.438;2023-01-05T15:00:04;8.80;99.90
11474;DHT22;5793;52.238;13.438;2023-01-05T15:02:42;8.80;99.90
11474;DHT22;5793;52.238;13.438;2023-01-05T15:05:14;8.80;99.90
11474;DHT22;5793;52.238;13.438;2023-01-05T15:07:51;8.90;99.90
11474;DHT22;5793;52.238;13.438;2023-01-05T15:10:52;8.90;99.90
11474;DHT22;5793;52.238;13.438;2023-01-05T15:13:43;8.90;99.90
11474;DHT22;5793;52.238;13.438;2023-01-05T15:16:52;8.80;99.90
11474;DHT22;5793;52.238;13.438;2023-01-05T15:19:39;8.80;99.90
11474;DHT22;5793;52.238;13.438;2023-01-05T15:22:23;8.80;99.90
11474;DHT22;5793;52.238;13.438;2023-01-05T15:28:52;8.80;99.90
11474;DHT22;5793;52.238;13.438;2023-01-05T15:31:32;8.80;99.90
11474;DHT22;5793;52.238;13.438;2023-01-05T15:34:14;8.80;99.90
11474;DHT22;5793;52.238;13.438;2023-01-05T15:36:48;8.80;99.90
11474;DHT22;5793;52.238;13.438;2023-01-05T15:39:28;8.70;99.90
11474;DHT22;5793;52.238;13.438;2023-01-05T15:41:58;8.60;99.90
11474;DHT22;5793;52.238;13.438;2023-01-05T15:44:35;8.70;99.90
11474;DHT22;5793;52.238;13.438;2023-01-05T15:47:07;8.60;99.90
11474;DHT22;5793;52.238;13.438;2023-01-05T15:49:37;8.60;99.90
11474;DHT22;5793;52.238;13.438;2023-01-05T15:52:16;8.60;99.90
11474;DHT22;5793;52.238;13.438;2023-01-05T15:54:56;8.60;99.90
11474;DHT22;5793;52.238;13.438;2023-01-05T15:57:24;8.60;99.90
11474;DHT22;5793;52.238;13.438;2023-01-05T15:59:53;8.60;99.90
11474;DHT22;5793;52.238;13.438;2023-01-05T16:02:23;8.50;99.90
11474;DHT22;5793;52.238;13.438;2023-01-05T16:05:11;8.50;99.90
11474;DHT22;5793;52.238;13.438;2023-01-05T16:07:44;8.50;99.90
11474;DHT22;5793;52.238;13.438;2023-01-05T16:10:18;8.50;99.90
11474;DHT22;5793;52.238;13.438;2023-01-05T16:12:48;8.50;99.90
11474;DHT22;5793;52.238;13.438;2023-01-05T16:15:20;8.50;99.90
11474;DHT22;5793;52.238;13.438;2023-01-05T16:17:52;8.50;99.90
11474;DHT22;5793;52.238;13.438;2023-01-05T16:20:22;8.50;99.90
11474;DHT22;5793;52.238;13.438;2023-01-05T16:22:56;8.40;99.90
11474;DHT22;5793;52.238;13.438;2023-01-05T16:25:38;8.40;99.90
11474;DHT22;5793;52.238;13.438;2023-01-05T16:28:13;8.40;99.90
11474;DHT22;5793;52.238;13.438;2023-01-05T16:30:45;8.40;99.90
11474;DHT22;5793;52.238;13.438;2023-01-05T16:33:22;8.30;99.90
11474;DHT22;5793;52.238;13.438;2023-01-05T16:36:06;8.30;99.90
11474;DHT22;5793;52.238;13.438;2023-01-05T16:38:35;8.30;99.90
11474;DHT22;5793;52.238;13.438;2023-01-05T16:41:13;8.40;99.90
11474;DHT22;5793;52.238;13.438;2023-01-05T16:43:53;8.40;99.90
11474;DHT22;5793;52.238;13.438;2023-01-05T16:46:28;8.40;99.90
11474;DHT22;5793;52.238;13.438;2023-01-05T16:48:59;8.40;99.90